createdAt,value
2023-04-10T00:01:05.782Z,7.90
2023-04-10T00:03:34.239Z,7.20
2023-04-10T00:06:02.572Z,7.17
2023-04-10T00:08:30.776Z,7.03
2023-04-10T00:10:59.056Z,6.70
2023-04-10T00:13:27.526Z,6.37
2023-04-10T00:15:55.946Z,6.40
2023-04-10T00:18:25.844Z,7.07
2023-04-10T00:20:54.008Z,6.03
2023-04-10T00:23:22.103Z,6.30
2023-04-10T00:25:50.395Z,6.07
2023-04-10T00:28:18.928Z,6.70
2023-04-10T00:30:47.057Z,5.93
2023-04-10T00:33:15.300Z,6.90
2023-04-10T00:35:45.214Z,6.63
2023-04-10T00:38:13.437Z,6.93
2023-04-10T00:40:41.944Z,6.63
2023-04-10T00:43:10.008Z,6.60
2023-04-10T00:45:38.273Z,7.43
2023-04-10T00:48:07.144Z,6.90
2023-04-10T00:50:35.675Z,7.30
2023-04-10T00:53:05.189Z,7.10
2023-04-10T00:55:33.310Z,7.53
2023-04-10T00:58:01.622Z,7.27
2023-04-10T01:00:29.883Z,7.47
2023-04-10T01:02:58.386Z,7.67
2023-04-10T01:05:28.989Z,6.83
2023-04-10T01:08:10.798Z,7.80
2023-04-10T01:10:48.410Z,7.93
2023-04-10T01:13:23.546Z,7.90
2023-04-10T01:15:59.778Z,7.93
2023-04-10T01:18:33.149Z,8.17
2023-04-10T01:21:03.956Z,8.60
2023-04-10T01:23:54.697Z,7.47
2023-04-10T01:26:37.978Z,6.93
2023-04-10T01:29:09.795Z,7.50
2023-04-10T01:31:43.131Z,6.60
2023-04-10T01:34:17.022Z,7.77
2023-04-10T01:36:51.326Z,7.70
2023-04-10T01:39:22.036Z,7.37
2023-04-10T01:41:53.017Z,8.13
2023-04-10T01:44:26.165Z,7.47
2023-04-10T01:46:55.542Z,8.03
2023-04-10T01:49:25.525Z,6.90
2023-04-10T01:51:54.768Z,6.83
2023-04-10T01:54:23.634Z,6.47
2023-04-10T01:56:51.739Z,6.97
2023-04-10T01:59:20.601Z,7.33
2023-04-10T02:01:50.248Z,6.87
2023-04-10T02:04:18.680Z,6.87
2023-04-10T02:06:52.904Z,7.67
2023-04-10T02:09:27.447Z,7.27
2023-04-10T02:12:00.404Z,7.67
2023-04-10T02:14:29.964Z,6.73
2023-04-10T02:17:00.688Z,7.40
2023-04-10T02:19:30.045Z,7.67
2023-04-10T02:21:59.981Z,7.33
2023-04-10T02:24:28.807Z,8.03
2023-04-10T02:26:57.964Z,8.20
2023-04-10T02:29:26.142Z,8.07
2023-04-10T02:31:54.322Z,8.73
2023-04-10T02:34:23.988Z,8.97
2023-04-10T02:36:52.443Z,9.27
2023-04-10T02:39:20.678Z,8.90
2023-04-10T02:41:48.780Z,10.47
2023-04-10T02:44:16.871Z,11.50
2023-04-10T02:46:45.058Z,11.43
2023-04-10T02:49:13.857Z,11.03
2023-04-10T02:51:43.355Z,11.03
2023-04-10T02:54:11.476Z,11.03
2023-04-10T02:56:39.594Z,11.27
2023-04-10T02:59:08.188Z,11.90
2023-04-10T03:01:36.408Z,11.50
2023-04-10T03:04:05.090Z,12.13
2023-04-10T03:06:33.296Z,11.40
2023-04-10T03:09:02.814Z,11.47
2023-04-10T03:11:31.456Z,10.00
2023-04-10T03:13:59.519Z,10.00
2023-04-10T03:16:27.858Z,9.87
2023-04-10T03:18:56.146Z,10.90
2023-04-10T03:21:25.379Z,10.37
2023-04-10T03:23:53.825Z,9.20
2023-04-10T03:26:24.194Z,9.87
2023-04-10T03:28:52.367Z,9.17
2023-04-10T03:31:20.760Z,9.23
2023-04-10T03:33:49.122Z,8.93
2023-04-10T03:36:17.437Z,9.97
2023-04-10T03:38:45.540Z,9.93
2023-04-10T03:41:13.795Z,9.30
2023-04-10T03:43:43.383Z,9.57
2023-04-10T03:46:11.560Z,9.00
2023-04-10T03:48:39.694Z,10.83
2023-04-10T03:51:08.545Z,21.03
2023-04-10T03:53:36.906Z,11.63
2023-04-10T03:56:05.393Z,10.70
2023-04-10T03:58:33.537Z,10.40
2023-04-10T04:01:03.308Z,9.70
2023-04-10T04:03:31.714Z,9.10
2023-04-10T04:06:00.019Z,9.60
2023-04-10T04:08:28.083Z,9.77
2023-04-10T04:10:58.760Z,9.23
2023-04-10T04:13:27.325Z,8.47
2023-04-10T04:15:55.884Z,8.60
2023-04-10T04:18:25.328Z,8.60
2023-04-10T04:20:53.516Z,9.70
2023-04-10T04:23:21.701Z,9.37
2023-04-10T04:25:52.894Z,10.90
2023-04-10T04:28:20.992Z,10.07
2023-04-10T04:30:49.187Z,8.77
2023-04-10T04:33:17.423Z,9.60
2023-04-10T04:35:46.975Z,9.67
2023-04-10T04:38:16.865Z,9.83
2023-04-10T04:40:44.994Z,9.53
2023-04-10T04:43:13.235Z,9.97
2023-04-10T04:45:41.355Z,10.03
2023-04-10T04:48:09.545Z,9.03
2023-04-10T04:50:37.730Z,9.47
2023-04-10T04:53:08.088Z,10.63
2023-04-10T04:55:36.977Z,10.00
2023-04-10T04:58:05.152Z,8.83
2023-04-10T05:00:33.330Z,10.13
2023-04-10T05:03:02.066Z,9.33
2023-04-10T05:05:31.791Z,10.73
2023-04-10T05:08:00.592Z,10.07
2023-04-10T05:10:30.217Z,10.17
2023-04-10T05:12:58.285Z,11.47
2023-04-10T05:15:26.456Z,9.83
2023-04-10T05:17:54.888Z,10.93
2023-04-10T05:20:23.060Z,10.77
2023-04-10T05:22:53.091Z,12.70
2023-04-10T05:25:21.332Z,11.67
2023-04-10T05:27:51.051Z,10.70
2023-04-10T05:30:19.354Z,10.30
2023-04-10T05:32:47.501Z,11.03
2023-04-10T05:35:15.671Z,11.50
2023-04-10T05:37:43.794Z,11.83
2023-04-10T05:40:12.293Z,10.77
2023-04-10T05:42:40.469Z,10.40
2023-04-10T05:45:10.752Z,10.50
2023-04-10T05:47:38.883Z,9.77
2023-04-10T05:50:07.825Z,9.23
2023-04-10T05:52:36.281Z,10.30
2023-04-10T05:55:04.698Z,11.47
2023-04-10T05:57:33.434Z,11.73
2023-04-10T06:00:01.851Z,10.93
2023-04-10T06:02:32.427Z,9.60
2023-04-10T06:05:01.052Z,9.47
2023-04-10T06:07:29.222Z,10.13
2023-04-10T06:09:57.437Z,8.97
2023-04-10T06:12:25.935Z,7.57
2023-04-10T06:14:54.619Z,7.47
2023-04-10T06:17:24.328Z,7.23
2023-04-10T06:19:53.952Z,7.33
2023-04-10T06:22:22.720Z,6.83
2023-04-10T06:24:50.778Z,7.47
2023-04-10T06:27:18.990Z,7.00
2023-04-10T06:29:47.156Z,7.40
2023-04-10T06:32:15.162Z,6.80
2023-04-10T06:34:43.361Z,6.97
2023-04-10T06:37:12.742Z,5.97
2023-04-10T06:39:41.009Z,7.03
2023-04-10T06:42:09.293Z,6.53
2023-04-10T06:44:37.485Z,6.57
2023-04-10T06:47:07.045Z,6.50
2023-04-10T06:49:35.149Z,6.53
2023-04-10T06:52:03.284Z,5.87
2023-04-10T06:54:32.873Z,7.13
2023-04-10T06:57:01.306Z,5.67
2023-04-10T06:59:29.384Z,6.20
2023-04-10T07:01:57.457Z,6.13
2023-04-10T07:04:25.653Z,5.63
2023-04-10T07:06:53.987Z,6.40
2023-04-10T07:09:22.598Z,5.03
2023-04-10T07:11:52.284Z,5.57
2023-04-10T07:14:20.625Z,5.60
2023-04-10T07:16:50.322Z,5.63
2023-04-10T07:19:18.497Z,4.90
2023-04-10T07:21:50.217Z,5.77
2023-04-10T07:24:18.890Z,7.17
2023-04-10T07:26:47.789Z,6.17
2023-04-10T07:29:17.380Z,6.03
2023-04-10T07:31:46.081Z,5.40
2023-04-10T07:34:14.260Z,6.07
2023-04-10T07:36:43.161Z,6.90
2023-04-10T07:39:12.650Z,5.25
2023-04-10T07:41:40.982Z,5.00
2023-04-10T07:44:09.113Z,4.78
2023-04-10T07:46:39.464Z,4.77
2023-04-10T07:49:08.793Z,4.70
2023-04-10T07:51:37.380Z,5.40
2023-04-10T07:54:06.285Z,5.53
2023-04-10T07:56:34.666Z,4.73
2023-04-10T07:59:02.909Z,5.40
2023-04-10T08:01:31.220Z,5.00
2023-04-10T08:04:02.914Z,7.32
2023-04-10T08:06:34.094Z,4.75
2023-04-10T08:09:02.741Z,4.27
2023-04-10T08:11:32.036Z,4.55
2023-04-10T08:14:02.808Z,6.53
2023-04-10T08:16:32.364Z,4.10
2023-04-10T08:19:02.720Z,5.30
2023-04-10T08:21:32.460Z,3.80
2023-04-10T08:24:02.644Z,4.80
2023-04-10T08:26:30.976Z,4.80
2023-04-10T08:29:00.947Z,4.68
2023-04-10T08:31:30.167Z,4.45
2023-04-10T08:33:59.305Z,5.50
2023-04-10T08:36:29.152Z,3.22
2023-04-10T08:38:57.430Z,3.45
2023-04-10T08:41:25.771Z,6.07
2023-04-10T08:43:54.603Z,4.88
2023-04-10T08:46:24.730Z,3.83
2023-04-10T08:49:05.518Z,4.35
2023-04-10T08:51:40.571Z,4.35
2023-04-10T08:54:12.106Z,4.53
2023-04-10T08:56:42.895Z,4.88
2023-04-10T08:59:11.108Z,3.30
2023-04-10T09:01:41.883Z,2.70
2023-04-10T09:04:13.288Z,3.40
2023-04-10T09:06:42.849Z,4.03
2023-04-10T09:09:11.190Z,4.33
2023-04-10T09:12:04.403Z,5.97
2023-04-10T09:14:34.294Z,5.33
2023-04-10T09:17:19.354Z,5.37
2023-04-10T09:19:49.202Z,3.57
2023-04-10T09:22:19.066Z,4.70
2023-04-10T09:24:48.764Z,3.42
2023-04-10T09:27:32.726Z,4.15
2023-04-10T09:30:01.331Z,5.22
2023-04-10T09:32:40.505Z,5.45
2023-04-10T09:35:09.701Z,5.13
2023-04-10T09:37:40.867Z,6.28
2023-04-10T09:40:23.070Z,4.25
2023-04-10T09:42:51.380Z,4.68
2023-04-10T09:45:20.895Z,3.35
2023-04-10T09:48:03.577Z,5.03
2023-04-10T09:50:39.505Z,4.70
2023-04-10T09:53:10.640Z,3.45
2023-04-10T09:55:39.332Z,3.60
2023-04-10T09:58:08.223Z,3.58
2023-04-10T10:00:41.118Z,3.17
2023-04-10T10:03:11.884Z,4.07
2023-04-10T10:05:43.048Z,4.73
2023-04-10T10:08:16.829Z,4.70
2023-04-10T10:10:49.566Z,4.97
2023-04-10T10:13:26.275Z,5.93
2023-04-10T10:16:05.484Z,5.90
2023-04-10T10:18:40.734Z,5.27
2023-04-10T10:21:10.555Z,4.30
2023-04-10T10:23:44.152Z,4.40
2023-04-10T10:26:12.548Z,6.05
2023-04-10T10:28:42.941Z,5.30
2023-04-10T10:31:12.473Z,5.05
2023-04-10T10:33:42.389Z,4.88
2023-04-10T10:36:14.049Z,4.85
2023-04-10T10:38:53.064Z,5.53
2023-04-10T10:41:28.626Z,4.87
2023-04-10T10:44:03.463Z,4.85
2023-04-10T10:46:38.231Z,4.53
2023-04-10T10:49:06.561Z,5.00
2023-04-10T10:51:55.747Z,5.65
2023-04-10T10:54:33.757Z,5.03
2023-04-10T10:57:06.624Z,5.60
2023-04-10T10:59:55.695Z,4.10
2023-04-10T11:02:25.290Z,4.50
2023-04-10T11:04:54.064Z,5.53
2023-04-10T11:07:22.288Z,4.82
2023-04-10T11:09:57.366Z,4.75
2023-04-10T11:12:26.400Z,4.28
2023-04-10T11:15:02.084Z,4.03
2023-04-10T11:17:51.533Z,4.57
2023-04-10T11:20:22.662Z,4.10
2023-04-10T11:23:12.018Z,5.72
2023-04-10T11:25:53.073Z,4.72
2023-04-10T11:28:42.274Z,4.60
2023-04-10T11:31:24.247Z,5.50
2023-04-10T11:34:03.241Z,5.50
2023-04-10T11:36:32.274Z,6.43
2023-04-10T11:39:06.021Z,6.35
2023-04-10T11:41:39.112Z,4.68
2023-04-10T11:44:10.330Z,4.93
2023-04-10T11:46:39.516Z,4.70
2023-04-10T11:49:09.792Z,4.75
2023-04-10T11:51:38.840Z,4.55
2023-04-10T11:54:09.233Z,5.20
2023-04-10T11:56:39.751Z,5.50
2023-04-10T11:59:10.812Z,5.40
2023-04-10T12:01:43.071Z,4.47
2023-04-10T12:04:19.264Z,4.40
2023-04-10T12:06:48.695Z,5.03
2023-04-10T12:09:17.716Z,4.22
2023-04-10T12:11:55.042Z,4.13
2023-04-10T12:14:24.145Z,4.53
2023-04-10T12:16:53.045Z,4.60
2023-04-10T12:19:24.308Z,3.83
2023-04-10T12:21:52.527Z,4.43
2023-04-10T12:24:43.333Z,4.85
2023-04-10T12:27:18.676Z,4.78
2023-04-10T12:29:47.276Z,4.72
2023-04-10T12:32:15.757Z,4.57
2023-04-10T12:34:44.353Z,4.40
2023-04-10T12:37:12.534Z,5.30
2023-04-10T12:39:43.343Z,3.85
2023-04-10T12:42:19.118Z,3.47
2023-04-10T12:44:55.054Z,3.60
2023-04-10T12:47:23.998Z,4.25
2023-04-10T12:50:13.807Z,3.30
2023-04-10T12:52:43.818Z,3.70
2023-04-10T12:55:14.274Z,3.05
2023-04-10T12:57:46.130Z,3.42
2023-04-10T13:00:16.673Z,3.53
2023-04-10T13:02:46.009Z,3.40
2023-04-10T13:05:14.664Z,3.72
2023-04-10T13:07:42.967Z,4.03
2023-04-10T13:10:11.580Z,3.88
2023-04-10T13:12:40.892Z,4.35
2023-04-10T13:15:14.494Z,4.30
2023-04-10T13:17:44.629Z,4.85
2023-04-10T13:20:13.657Z,4.47
2023-04-10T13:22:41.777Z,4.13
2023-04-10T13:25:10.618Z,4.70
2023-04-10T13:27:38.762Z,5.00
2023-04-10T13:30:08.381Z,5.30
2023-04-10T13:32:38.100Z,5.88
2023-04-10T13:35:07.246Z,5.32
2023-04-10T13:37:35.356Z,4.35
2023-04-10T13:40:05.378Z,5.20
2023-04-10T13:42:34.133Z,4.50
2023-04-10T13:45:03.756Z,5.72
2023-04-10T13:47:32.145Z,4.07
2023-04-10T13:50:01.761Z,7.00
2023-04-10T13:52:29.840Z,35.13
2023-04-10T13:54:58.099Z,18.10
2023-04-10T13:57:26.339Z,4.50
2023-04-10T13:59:55.091Z,4.80
2023-04-10T14:02:23.294Z,4.60
2023-04-10T14:04:51.519Z,4.93
2023-04-10T14:07:22.456Z,4.30
2023-04-10T14:09:50.605Z,4.50
2023-04-10T14:12:19.280Z,4.65
2023-04-10T14:14:48.578Z,4.80
2023-04-10T14:17:16.901Z,6.13
2023-04-10T14:19:46.462Z,4.03
2023-04-10T14:22:14.721Z,9.57
2023-04-10T14:24:46.499Z,5.97
2023-04-10T14:27:15.260Z,5.82
2023-04-10T14:29:53.935Z,4.57
2023-04-10T14:32:23.211Z,4.38
2023-04-10T14:34:51.523Z,5.22
2023-04-10T14:37:20.024Z,4.80
2023-04-10T14:39:49.705Z,5.82
2023-04-10T14:42:17.946Z,8.23
2023-04-10T14:44:46.172Z,6.30
2023-04-10T14:47:14.368Z,7.20
2023-04-10T14:49:43.064Z,5.70
2023-04-10T14:52:13.808Z,5.70
2023-04-10T14:54:42.245Z,4.95
2023-04-10T14:57:12.511Z,4.85
2023-04-10T14:59:40.752Z,4.90
2023-04-10T15:02:08.950Z,4.33
2023-04-10T15:04:37.383Z,10.63
2023-04-10T15:07:05.513Z,18.30
2023-04-10T15:09:33.855Z,8.25
2023-04-10T15:12:02.220Z,5.38
2023-04-10T15:14:32.405Z,6.03
2023-04-10T15:17:00.586Z,5.77
2023-04-10T15:19:28.752Z,5.70
2023-04-10T15:21:56.901Z,7.20
2023-04-10T15:24:25.049Z,23.03
2023-04-10T15:26:54.041Z,5.67
2023-04-10T15:29:22.181Z,5.40
2023-04-10T15:31:52.439Z,7.30
2023-04-10T15:34:21.990Z,5.77
2023-04-10T15:36:50.064Z,6.17
2023-04-10T15:39:18.487Z,6.07
2023-04-10T15:41:48.345Z,5.70
2023-04-10T15:44:16.452Z,5.60
2023-04-10T15:46:47.222Z,6.37
2023-04-10T15:49:29.867Z,6.00
2023-04-10T15:52:06.601Z,5.73
2023-04-10T15:54:35.132Z,6.57
2023-04-10T15:57:03.495Z,8.23
2023-04-10T15:59:32.131Z,8.37
2023-04-10T16:02:00.690Z,9.17
2023-04-10T16:04:30.316Z,9.33
2023-04-10T16:06:58.424Z,9.17
2023-04-10T16:09:27.173Z,10.03
2023-04-10T16:11:56.323Z,9.33
2023-04-10T16:14:24.767Z,9.37
2023-04-10T16:16:53.099Z,12.33
2023-04-10T16:19:21.242Z,10.43
2023-04-10T16:21:51.258Z,9.10
2023-04-10T16:24:20.908Z,10.50
2023-04-10T16:26:49.042Z,10.13
2023-04-10T16:29:19.925Z,10.67
2023-04-10T16:31:48.236Z,9.00
2023-04-10T16:34:16.504Z,9.87
2023-04-10T16:36:44.731Z,14.83
2023-04-10T16:39:14.178Z,13.53
2023-04-10T16:41:42.322Z,13.70
2023-04-10T16:44:10.615Z,15.00
2023-04-10T16:46:38.979Z,11.40
2023-04-10T16:49:07.213Z,11.57
2023-04-10T16:51:35.365Z,11.67
2023-04-10T16:54:03.806Z,11.33
2023-04-10T16:56:34.128Z,11.43
2023-04-10T16:59:02.296Z,12.07
2023-04-10T17:01:31.021Z,11.53
2023-04-10T17:03:59.278Z,11.57
2023-04-10T17:06:27.506Z,12.37
2023-04-10T17:08:55.849Z,11.67
2023-04-10T17:11:24.176Z,12.60
2023-04-10T17:13:56.335Z,12.80
2023-04-10T17:16:24.471Z,12.73
2023-04-10T17:18:53.413Z,13.13
2023-04-10T17:21:21.780Z,12.00
2023-04-10T17:23:51.163Z,13.53
2023-04-10T17:26:19.368Z,11.20
2023-04-10T17:28:47.661Z,11.83
2023-04-10T17:31:18.604Z,9.30
2023-04-10T17:33:46.851Z,8.67
2023-04-10T17:36:18.102Z,9.37
2023-04-10T17:38:46.427Z,10.70
2023-04-10T17:41:17.184Z,9.03
2023-04-10T17:43:45.465Z,9.03
2023-04-10T17:46:18.621Z,9.23
2023-04-10T17:48:46.801Z,9.83
2023-04-10T17:51:14.962Z,9.53
2023-04-10T17:53:43.095Z,9.50
2023-04-10T17:56:18.733Z,10.60
2023-04-10T17:58:46.997Z,8.40
2023-04-10T18:01:24.449Z,8.60
2023-04-10T18:03:52.971Z,9.47
2023-04-10T18:06:21.157Z,10.23
2023-04-10T18:08:49.433Z,10.80
2023-04-10T18:11:18.008Z,11.83
2023-04-10T18:13:47.006Z,12.97
2023-04-10T18:16:15.529Z,11.53
2023-04-10T18:18:45.115Z,10.57
2023-04-10T18:21:13.651Z,10.57
2023-04-10T18:23:42.150Z,13.87
2023-04-10T18:26:10.291Z,12.93
2023-04-10T18:28:38.887Z,10.97
2023-04-10T18:31:08.556Z,12.80
2023-04-10T18:33:36.801Z,16.20
2023-04-10T18:36:07.010Z,12.00
2023-04-10T18:38:36.148Z,11.90
2023-04-10T18:41:04.763Z,11.47
2023-04-10T18:43:32.968Z,11.00
2023-04-10T18:46:01.648Z,11.23
2023-04-10T18:48:29.921Z,12.93
2023-04-10T18:50:58.066Z,12.43
2023-04-10T18:53:27.757Z,12.37
2023-04-10T18:55:56.359Z,11.87
2023-04-10T18:58:25.708Z,11.90
2023-04-10T19:00:55.268Z,11.13
2023-04-10T19:03:23.590Z,11.40
2023-04-10T19:05:51.887Z,11.33
2023-04-10T19:08:20.077Z,11.27
2023-04-10T19:10:49.765Z,12.03
2023-04-10T19:13:19.347Z,11.60
2023-04-10T19:15:48.347Z,12.20
2023-04-10T19:18:16.740Z,12.73
2023-04-10T19:20:50.332Z,11.90
2023-04-10T19:23:20.708Z,12.53
2023-04-10T19:25:53.234Z,13.00
2023-04-10T19:28:23.832Z,12.90
2023-04-10T19:30:52.004Z,13.07
2023-04-10T19:33:21.096Z,13.70
2023-04-10T19:35:49.082Z,12.90
2023-04-10T19:38:17.194Z,14.23
2023-04-10T19:40:45.655Z,12.50
2023-04-10T19:43:15.355Z,11.97
2023-04-10T19:45:43.689Z,12.50
2023-04-10T19:48:16.062Z,14.07
2023-04-10T19:50:44.303Z,14.00
2023-04-10T19:53:15.591Z,14.87
2023-04-10T19:55:45.961Z,13.50
2023-04-10T19:58:35.694Z,14.40
2023-04-10T20:01:04.624Z,15.80
2023-04-10T20:03:33.510Z,15.40
2023-04-10T20:06:03.475Z,16.07
2023-04-10T20:08:32.087Z,14.60
2023-04-10T20:11:00.478Z,13.33
2023-04-10T20:13:29.986Z,13.87
2023-04-10T20:15:58.777Z,12.63
2023-04-10T20:18:27.045Z,13.33
2023-04-10T20:20:56.546Z,12.23
2023-04-10T20:23:25.466Z,13.27
2023-04-10T20:25:54.146Z,12.70
2023-04-10T20:28:22.258Z,12.27
2023-04-10T20:30:52.028Z,12.70
2023-04-10T20:33:20.512Z,12.07
2023-04-10T20:35:49.052Z,10.90
2023-04-10T20:38:19.672Z,10.43
2023-04-10T20:40:48.038Z,10.90
2023-04-10T20:43:16.297Z,10.30
2023-04-10T20:45:44.489Z,10.53
2023-04-10T20:48:14.489Z,10.43
2023-04-10T20:50:44.644Z,10.10
2023-04-10T20:53:13.848Z,9.70
2023-04-10T20:55:42.132Z,9.23
2023-04-10T20:58:10.465Z,9.87
2023-04-10T21:00:39.948Z,9.40
2023-04-10T21:03:08.535Z,9.57
2023-04-10T21:05:42.711Z,9.83
2023-04-10T21:08:11.601Z,8.80
2023-04-10T21:10:44.309Z,9.53
2023-04-10T21:13:14.259Z,8.97
2023-04-10T21:15:42.635Z,9.57
2023-04-10T21:18:11.477Z,9.50
2023-04-10T21:20:39.900Z,9.33
2023-04-10T21:23:09.558Z,10.03
2023-04-10T21:25:38.005Z,9.63
2023-04-10T21:28:06.231Z,9.57
2023-04-10T21:30:35.952Z,9.67
2023-04-10T21:33:04.506Z,9.77
2023-04-10T21:35:32.731Z,10.53
2023-04-10T21:38:02.238Z,10.33
2023-04-10T21:40:34.581Z,11.10
2023-04-10T21:43:02.924Z,11.87
2023-04-10T21:45:31.308Z,10.77
2023-04-10T21:48:00.567Z,11.13
2023-04-10T21:50:28.805Z,11.47
2023-04-10T21:52:57.123Z,10.87
2023-04-10T21:55:25.218Z,11.60
2023-04-10T21:57:55.529Z,11.63
2023-04-10T22:00:23.587Z,11.80
2023-04-10T22:02:53.951Z,11.47
2023-04-10T22:05:22.739Z,12.47
2023-04-10T22:07:50.923Z,12.03
2023-04-10T22:10:19.090Z,12.33
2023-04-10T22:12:48.753Z,12.03
2023-04-10T22:15:20.037Z,12.27
2023-04-10T22:17:48.551Z,12.63
2023-04-10T22:20:17.210Z,12.50
2023-04-10T22:22:45.391Z,12.97
2023-04-10T22:25:13.561Z,12.40
2023-04-10T22:27:41.769Z,12.40
2023-04-10T22:30:11.092Z,11.90
2023-04-10T22:32:40.602Z,12.13
2023-04-10T22:35:09.687Z,12.00
2023-04-10T22:37:37.902Z,11.57
2023-04-10T22:40:07.156Z,11.97
2023-04-10T22:42:35.275Z,12.67
2023-04-10T22:45:04.220Z,12.13
2023-04-10T22:47:32.255Z,12.57
2023-04-10T22:50:01.698Z,11.83
2023-04-10T22:52:29.772Z,11.80
2023-04-10T22:54:58.837Z,12.30
2023-04-10T22:57:27.025Z,12.50
2023-04-10T22:59:55.440Z,11.73
2023-04-10T23:02:23.722Z,12.20
2023-04-10T23:04:51.983Z,10.90
2023-04-10T23:07:22.031Z,10.93
2023-04-10T23:09:50.177Z,12.20
2023-04-10T23:12:18.465Z,10.03
2023-04-10T23:14:46.634Z,10.60
2023-04-10T23:17:15.481Z,9.60
2023-04-10T23:19:43.662Z,9.10
2023-04-10T23:22:12.683Z,9.30
2023-04-10T23:24:42.276Z,8.67
2023-04-10T23:27:10.424Z,8.33
2023-04-10T23:29:38.519Z,8.33
2023-04-10T23:32:07.983Z,7.83
2023-04-10T23:34:36.055Z,8.40
2023-04-10T23:37:04.129Z,8.90
2023-04-10T23:39:32.249Z,8.00
2023-04-10T23:42:04.434Z,8.20
2023-04-10T23:44:32.598Z,8.77
2023-04-10T23:47:00.886Z,8.47
2023-04-10T23:49:29.684Z,9.27
2023-04-10T23:51:57.695Z,9.17
2023-04-10T23:54:25.870Z,9.17
2023-04-10T23:56:54.837Z,9.30
2023-04-10T23:59:24.366Z,9.40
